Time;durP1;ratioP1;P1;durP2;ratioP2;P2;SDS_P1;SDS_P2;PMS_P1;PMS_P2;Temp;Humidity;BMP_temperature;BMP_pressure;BME280_temperature;BME280_humidity;BME280_pressure;Samples;Min_cycle;Max_cycle;Signal;HPM_P1;HPM_P2
2023/10/15 00:03:29;;;;;;;1.05;0.60;;;;;;;19.81;52.02;96915.00;10446411;28;20114;-28
2023/10/15 00:08:29;;;;;;;1.77;1.10;;;;;;;19.81;52.30;96915.88;10432446;28;20595;-29
2023/10/15 00:13:30;;;;;;;1.15;0.57;;;;;;;19.79;52.36;96919.25;10445628;28;20044;-29
2023/10/15 00:18:30;;;;;;;1.53;0.60;;;;;;;19.80;52.13;96923.50;10454723;28;20041;-29
2023/10/15 00:23:31;;;;;;;1.73;0.75;;;;;;;19.80;52.40;96923.50;10447100;28;20287;-28
2023/10/15 00:28:31;;;;;;;3.78;1.52;;;;;;;19.80;52.18;96920.94;10435991;28;20045;-29
2023/10/15 00:33:31;;;;;;;1.92;0.57;;;;;;;19.79;52.20;96911.63;10437452;28;20690;-29
2023/10/15 00:38:35;;;;;;;1.40;0.70;;;;;;;19.78;52.13;96913.34;10444088;28;20040;-29
2023/10/15 00:43:50;;;;;;;2.60;0.63;;;;;;;19.78;52.09;96904.88;10447742;28;20294;-29
2023/10/15 00:48:56;;;;;;;1.75;0.68;;;;;;;19.79;51.90;96911.63;10440357;28;20038;-28
2023/10/15 00:53:58;;;;;;;4.13;1.15;;;;;;;19.79;51.83;96911.63;10446518;28;20033;-29
2023/10/15 01:04:07;;;;;;;1.10;0.70;;;;;;;19.77;51.93;96903.19;10438997;28;20065;-28
2023/10/15 01:09:18;;;;;;;1.40;0.60;;;;;;;19.77;52.05;96903.19;10435109;28;20568;-28
2023/10/15 01:14:31;;;;;;;1.52;0.68;;;;;;;19.77;51.82;96908.25;10445567;28;20025;-29
2023/10/15 01:19:34;;;;;;;2.35;1.00;;;;;;;19.75;51.72;96909.97;10442173;28;20048;-28
2023/10/15 01:24:37;;;;;;;1.73;0.98;;;;;;;19.76;51.70;96916.75;10439968;28;20472;-28
2023/10/15 01:29:43;;;;;;;0.88;0.52;;;;;;;19.77;51.69;96913.34;10449371;28;20041;-29
2023/10/15 01:34:48;;;;;;;1.37;0.90;;;;;;;19.76;51.64;96902.31;10442062;28;20037;-29
2023/10/15 01:39:51;;;;;;;1.80;0.60;;;;;;;19.74;51.57;96908.25;10442938;28;20034;-29
2023/10/15 01:44:53;;;;;;;1.73;0.63;;;;;;;19.75;51.59;96917.59;10442249;28;20068;-29
2023/10/15 01:49:56;;;;;;;1.13;0.60;;;;;;;19.75;51.51;96909.97;10443197;28;20045;-29
2023/10/15 01:55:03;;;;;;;3.85;0.73;;;;;;;19.74;51.46;96913.31;10438312;28;20041;-28
2023/10/15 02:00:14;;;;;;;;;;;;;;;19.74;51.54;96908.25;10439180;28;20110;-30
2023/10/15 02:05:40;;;;;;;2.15;0.55;;;;;;;19.73;51.56;96906.56;10433547;28;20267;-29
2023/10/15 02:10:46;;;;;;;3.20;0.68;;;;;;;19.75;51.58;96904.88;10442977;28;20037;-28
2023/10/15 02:15:49;;;;;;;2.40;0.57;;;;;;;19.73;51.42;96902.34;10446983;28;20043;-28
2023/10/15 02:25:58;;;;;;;2.03;0.95;;;;;;;19.75;51.39;96902.34;10441561;28;20121;-28
2023/10/15 02:36:15;;;;;;;2.17;0.65;;;;;;;19.71;51.52;96888.81;10441336;28;20032;-28
2023/10/15 02:41:17;;;;;;;3.00;0.95;;;;;;;19.72;51.34;96887.09;10433620;28;20025;-29
2023/10/15 02:46:21;;;;;;;2.08;0.63;;;;;;;19.73;51.14;96886.25;10438854;28;20041;-28
2023/10/15 02:51:26;;;;;;;1.42;0.60;;;;;;;19.72;51.17;96884.56;10434193;28;20489;-28
2023/10/15 02:56:28;;;;;;;0.73;0.50;;;;;;;19.73;51.11;96881.16;10438576;28;20049;-29
2023/10/15 03:01:28;;;;;;;1.30;0.80;;;;;;;19.71;51.07;96893.88;10429665;28;20407;-29
2023/10/15 03:06:31;;;;;;;1.67;0.98;;;;;;;19.70;51.07;96887.13;10431799;28;20040;-29
2023/10/15 03:11:33;;;;;;;1.52;0.68;;;;;;;19.70;51.29;96881.19;10428891;28;20037;-29
2023/10/15 03:16:35;;;;;;;2.00;0.80;;;;;;;19.71;51.18;96883.72;10437282;28;20465;-29
2023/10/15 03:21:39;;;;;;;2.90;0.73;;;;;;;19.69;51.00;96882.03;10442285;28;20028;-28
2023/10/15 03:26:47;;;;;;;1.27;0.60;;;;;;;19.69;51.39;96879.50;10439328;28;20059;-28
2023/10/15 03:31:54;;;;;;;1.30;0.88;;;;;;;19.69;51.04;96882.03;10443220;28;20047;-29
2023/10/15 03:37:00;;;;;;;2.00;0.73;;;;;;;19.70;51.16;96891.34;10443263;28;20116;-29
2023/10/15 03:42:10;;;;;;;2.63;0.90;;;;;;;19.69;51.20;96887.09;10443072;28;20106;-31
2023/10/15 03:47:12;;;;;;;2.45;0.93;;;;;;;19.69;51.01;96895.56;10451389;28;20111;-29
2023/10/15 03:52:20;;;;;;;2.08;0.70;;;;;;;19.70;50.99;96896.41;10447341;28;20111;-29
2023/10/15 03:57:34;;;;;;;2.13;0.80;;;;;;;19.69;51.09;96894.72;10448230;28;20518;-29
2023/10/15 04:03:00;;;;;;;1.95;0.70;;;;;;;19.69;50.90;96895.56;10445152;28;20494;-28
2023/10/15 04:08:01;;;;;;;2.50;0.73;;;;;;;19.68;51.27;96898.13;10447192;28;20029;-29
2023/10/15 04:13:04;;;;;;;2.83;0.70;;;;;;;19.68;50.85;96895.59;10447282;28;20029;-29
2023/10/15 04:18:04;;;;;;;2.28;1.05;;;;;;;19.68;50.71;96890.50;10442638;28;20029;-28
2023/10/15 04:23:10;;;;;;;1.87;0.67;;;;;;;19.67;50.98;96893.91;10457579;28;20033;-29
2023/10/15 04:28:14;;;;;;;;;;;;;;;19.67;50.87;96897.25;10446016;28;20292;-29
2023/10/15 04:33:14;;;;;;;2.13;0.70;;;;;;;19.64;50.75;96896.41;10448324;28;19916;-29
2023/10/15 04:38:30;;;;;;;1.63;0.70;;;;;;;19.65;50.87;96898.09;10449432;28;20028;-29
2023/10/15 04:43:41;;;;;;;1.00;0.43;;;;;;;19.66;50.93;96899.81;10447354;28;20483;-28
2023/10/15 04:48:45;;;;;;;1.52;0.68;;;;;;;19.66;51.24;96897.28;10452419;28;20067;-29
2023/10/15 04:53:48;;;;;;;1.00;0.57;;;;;;;19.61;50.62;96883.75;10444255;28;20037;-32
2023/10/15 04:58:49;;;;;;;1.15;0.80;;;;;;;19.65;51.08;96908.25;10449798;28;20059;-29
2023/10/15 05:03:49;;;;;;;1.55;0.88;;;;;;;19.66;50.67;96899.81;10450948;28;20490;-29
2023/10/15 05:08:50;;;;;;;2.85;1.48;;;;;;;19.59;50.59;96893.88;10443793;28;20033;-29
2023/10/15 05:13:51;;;;;;;2.13;0.90;;;;;;;19.46;50.37;96891.38;10446022;28;20135;-28
2023/10/15 05:18:51;;;;;;;1.83;0.63;;;;;;;19.45;50.56;96894.75;10435832;28;20082;-28
2023/10/15 05:23:52;;;;;;;2.45;0.52;;;;;;;19.43;50.83;96901.53;10447599;28;20533;-30
2023/10/15 05:28:52;;;;;;;1.03;0.63;;;;;;;19.39;50.42;96889.69;10450688;28;20033;-28
2023/10/15 05:33:52;;;;;;;0.70;0.40;;;;;;;19.43;50.29;96901.53;10448018;28;20039;-28
2023/10/15 05:38:53;;;;;;;5.73;0.87;;;;;;;19.25;50.22;96914.25;10444160;28;20070;-29
2023/10/15 05:43:53;;;;;;;2.60;0.90;;;;;;;19.02;49.91;96915.88;10446198;28;20036;-29
2023/10/15 05:48:54;;;;;;;2.63;1.17;;;;;;;18.97;49.45;96942.94;10448238;28;20029;-28
2023/10/15 05:53:54;;;;;;;4.03;1.13;;;;;;;19.02;49.57;96942.09;10441596;28;20029;-29
2023/10/15 05:58:55;;;;;;;2.77;0.90;;;;;;;19.30;49.86;96945.53;10445809;28;20029;-28
2023/10/15 06:03:55;;;;;;;6.28;1.13;;;;;;;19.32;50.12;96948.91;10445188;28;20368;-28
2023/10/15 06:08:59;;;;;;;3.30;0.90;;;;;;;19.49;49.84;96954.88;10434652;28;20036;-28
2023/10/15 06:14:00;;;;;;;2.55;1.00;;;;;;;19.51;49.97;96960.78;10435041;28;20450;-29
2023/10/15 06:19:00;;;;;;;4.97;1.20;;;;;;;19.56;49.91;96974.31;10435624;28;20025;-29
2023/10/15 06:24:00;;;;;;;5.97;1.20;;;;;;;19.40;50.67;96970.06;10433550;28;20419;-28
2023/10/15 06:29:01;;;;;;;4.70;1.00;;;;;;;19.39;50.37;96988.69;10448276;28;20299;-29
2023/10/15 06:34:01;;;;;;;5.67;1.23;;;;;;;19.50;50.36;96987.03;10440576;28;20689;-28
2023/10/15 06:39:03;;;;;;;5.57;1.30;;;;;;;19.51;50.31;96994.63;10444735;28;20031;-30
2023/10/15 06:44:04;;;;;;;1.50;0.93;;;;;;;19.54;50.27;97001.41;10445431;28;20033;-28
2023/10/15 06:49:07;;;;;;;2.05;0.75;;;;;;;19.56;50.34;96997.16;10443248;28;20033;-29
2023/10/15 06:54:11;;;;;;;1.13;0.93;;;;;;;19.55;50.29;97005.63;10443516;28;20025;-29
2023/10/15 06:59:11;;;;;;;3.17;0.85;;;;;;;19.56;50.39;97005.66;10446074;28;20037;-28
2023/10/15 07:04:12;;;;;;;4.00;1.00;;;;;;;19.55;50.42;97015.81;10443957;28;20033;-29
2023/10/15 07:09:13;;;;;;;1.85;0.70;;;;;;;19.56;50.50;97025.09;10442718;28;20052;-28
2023/10/15 07:14:14;;;;;;;1.00;0.70;;;;;;;19.57;50.26;97026.78;10444207;28;20128;-29
2023/10/15 07:19:14;;;;;;;1.37;0.93;;;;;;;19.55;50.37;97029.34;10438388;28;20410;-28
2023/10/15 07:24:14;;;;;;;2.40;0.68;;;;;;;19.56;50.52;97032.72;10442949;28;20095;-30
2023/10/15 07:29:16;;;;;;;3.17;1.20;;;;;;;19.55;50.33;97028.50;10447476;28;20034;-29
2023/10/15 07:34:17;;;;;;;2.08;0.75;;;;;;;19.55;50.25;97031.03;10441503;28;20061;-29
2023/10/15 07:39:17;;;;;;;1.47;0.90;;;;;;;19.56;50.26;97042.88;10444219;28;20398;-28
2023/10/15 07:44:18;;;;;;;1.30;0.80;;;;;;;19.56;50.25;97032.72;10447049;28;20025;-28
2023/10/15 07:49:19;;;;;;;1.13;0.80;;;;;;;19.56;50.41;97051.38;10444069;28;20479;-28
2023/10/15 07:54:20;;;;;;;2.25;1.00;;;;;;;19.55;50.62;97049.69;10443938;28;20032;-28
2023/10/15 07:59:20;;;;;;;1.57;0.67;;;;;;;19.56;50.42;97058.13;10446893;28;20025;-28
2023/10/15 08:04:20;;;;;;;2.17;0.87;;;;;;;19.56;50.46;97068.28;10442675;28;20037;-29
2023/10/15 08:09:21;;;;;;;1.30;0.77;;;;;;;19.56;50.27;97065.75;10440192;28;20041;-28
2023/10/15 08:14:21;;;;;;;0.88;0.60;;;;;;;19.55;50.68;97075.06;10454783;28;20283;-29
2023/10/15 08:19:21;;;;;;;1.03;0.40;;;;;;;19.55;50.52;97076.75;10452649;28;20025;-28
2023/10/15 08:24:22;;;;;;;1.00;0.50;;;;;;;19.55;50.42;97072.53;10453160;28;20032;-28
2023/10/15 08:29:22;;;;;;;3.05;0.82;;;;;;;19.53;50.51;97075.91;10453808;28;20052;-29
2023/10/15 08:34:23;;;;;;;1.00;0.43;;;;;;;19.55;50.44;97079.28;10452139;28;20102;-29
2023/10/15 08:39:23;;;;;;;0.90;0.50;;;;;;;19.54;50.42;97075.94;10450608;28;20959;-29
2023/10/15 08:44:25;;;;;;;1.20;0.68;;;;;;;19.53;50.52;97081.00;10453876;28;20060;-29
2023/10/15 08:49:30;;;;;;;1.00;0.50;;;;;;;19.54;50.58;97080.16;10446940;28;20040;-29
2023/10/15 08:54:30;;;;;;;2.67;0.80;;;;;;;19.55;50.39;97071.66;10430509;28;20098;-29
2023/10/15 08:59:32;;;;;;;2.05;0.80;;;;;;;19.54;50.59;97077.59;10441181;28;20066;-30
2023/10/15 09:04:33;;;;;;;1.42;0.75;;;;;;;19.54;50.51;97078.47;10437991;28;20036;-29
2023/10/15 09:09:33;;;;;;;2.22;0.90;;;;;;;19.53;50.54;97081.84;10430158;28;20044;-28
2023/10/15 09:14:42;;;;;;;1.13;0.60;;;;;;;19.53;50.29;97081.00;10450393;28;20040;-28
2023/10/15 09:19:44;;;;;;;0.77;0.60;;;;;;;19.53;50.51;97083.53;10434341;28;20037;-28
2023/10/15 09:24:46;;;;;;;3.58;1.23;;;;;;;19.51;50.35;97078.44;10433809;28;20455;-29
2023/10/15 09:29:46;;;;;;;2.47;0.70;;;;;;;19.52;50.26;97084.38;10433624;28;20468;-28
2023/10/15 09:34:49;;;;;;;1.60;0.70;;;;;;;19.52;50.30;97086.91;10436238;28;20048;-29
2023/10/15 09:39:49;;;;;;;1.27;0.65;;;;;;;19.49;50.29;97080.13;10429673;28;20295;-29
2023/10/15 09:44:49;;;;;;;2.47;1.00;;;;;;;19.52;50.19;97081.84;10442090;28;20049;-29
2023/10/15 09:49:52;;;;;;;1.45;0.75;;;;;;;19.51;50.50;97086.06;10432993;28;20700;-28
2023/10/15 09:54:55;;;;;;;1.13;0.80;;;;;;;19.52;50.25;97081.84;10431811;28;20036;-30
2023/10/15 09:59:55;;;;;;;1.65;0.80;;;;;;;19.53;50.43;97078.44;10437748;28;20137;-28
2023/10/15 10:05:44;;;;;;;1.73;0.93;;;;;;;19.53;50.33;97081.00;10426256;28;20115;-28
2023/10/15 10:11:05;;;;;;;2.33;1.23;;;;;;;19.55;50.43;97081.84;10440556;28;20338;-28
2023/10/15 10:16:22;;;;;;;0.80;0.73;;;;;;;19.61;50.19;97074.22;10425021;28;20045;-28
2023/10/15 10:21:28;;;;;;;1.42;0.60;;;;;;;19.64;50.16;97069.13;10432329;28;20479;-28
2023/10/15 10:26:32;;;;;;;2.17;0.70;;;;;;;19.66;50.31;97072.56;10435697;28;20064;-28
2023/10/15 10:31:39;;;;;;;1.38;0.73;;;;;;;19.65;50.31;97071.69;10431509;28;20044;-29
2023/10/15 10:36:39;;;;;;;1.70;0.82;;;;;;;19.68;50.44;97070.84;10431034;28;20111;-28
2023/10/15 10:41:46;;;;;;;0.93;0.68;;;;;;;19.68;50.45;97075.94;10433027;28;20078;-29
2023/10/15 10:46:46;;;;;;;3.58;1.05;;;;;;;19.68;50.39;97075.94;10443363;28;20066;-28
2023/10/15 10:52:15;;;;;;;1.50;0.80;;;;;;;19.67;50.41;97070.00;10437358;28;20102;-28
2023/10/15 10:57:18;;;;;;;1.02;0.82;;;;;;;19.68;50.33;97070.84;10424157;28;20064;-30
2023/10/15 11:02:20;;;;;;;1.00;0.80;;;;;;;19.68;50.41;97060.69;10429913;28;20577;-29
2023/10/15 11:07:21;;;;;;;1.05;0.50;;;;;;;19.68;50.47;97068.31;10426833;28;20060;-28
2023/10/15 11:12:22;;;;;;;2.00;0.87;;;;;;;19.68;50.56;97063.22;10431155;28;20092;-29
2023/10/15 11:17:22;;;;;;;0.90;0.63;;;;;;;19.66;50.34;97070.00;10426878;28;20307;-28
2023/10/15 11:22:22;;;;;;;1.53;0.80;;;;;;;19.66;50.65;97073.38;10440694;28;20488;-28
2023/10/15 11:27:23;;;;;;;1.47;0.77;;;;;;;19.67;50.80;97069.16;10436068;28;20068;-29
2023/10/15 11:32:24;;;;;;;0.95;0.82;;;;;;;19.67;50.31;97069.16;10428274;28;20307;-29
2023/10/15 11:37:25;;;;;;;0.88;0.60;;;;;;;19.67;50.87;97071.72;10432129;28;20487;-31
2023/10/15 11:42:26;;;;;;;1.87;0.87;;;;;;;19.66;50.72;97062.41;10432844;28;20041;-29
2023/10/15 11:47:32;;;;;;;1.35;0.60;;;;;;;19.69;50.71;97057.31;10445789;28;20063;-29
2023/10/15 11:52:39;;;;;;;;;;;;;;;19.68;50.93;97066.59;10439326;28;20037;-29
2023/10/15 11:57:40;;;;;;;0.93;0.60;;;;;;;19.69;50.75;97070.00;10436493;28;19920;-29
2023/10/15 12:02:41;;;;;;;1.05;0.90;;;;;;;19.69;50.84;97057.31;10442857;28;20094;-28
2023/10/15 12:07:42;;;;;;;0.73;0.50;;;;;;;19.70;50.90;97056.44;10446579;28;20461;-29
2023/10/15 12:12:42;;;;;;;0.63;0.50;;;;;;;19.70;50.71;97053.91;10439989;28;20029;-28
2023/10/15 12:17:43;;;;;;;0.95;0.73;;;;;;;19.70;50.98;97048.84;10446643;28;20033;-29
2023/10/15 12:22:44;;;;;;;1.15;0.75;;;;;;;19.70;50.81;97042.06;10443388;28;20048;-28
2023/10/15 12:27:44;;;;;;;0.85;0.70;;;;;;;19.70;50.81;97043.75;10444080;28;20045;-28
2023/10/15 12:32:45;;;;;;;0.63;0.40;;;;;;;19.70;50.95;97041.22;10445530;28;20029;-29
2023/10/15 12:37:46;;;;;;;1.27;0.82;;;;;;;19.69;50.85;97042.88;10451859;28;20294;-28
2023/10/15 12:42:47;;;;;;;0.40;0.40;;;;;;;19.69;50.85;97052.22;10448191;28;20071;-29
2023/10/15 12:47:48;;;;;;;0.75;0.60;;;;;;;19.69;50.93;97052.22;10442844;28;20045;-29
2023/10/15 12:52:49;;;;;;;1.60;0.57;;;;;;;19.68;50.96;97065.78;10431531;28;20491;-29
2023/10/15 12:57:53;;;;;;;0.67;0.60;;;;;;;19.69;50.96;97064.94;10433660;28;20040;-29
2023/10/15 13:02:53;;;;;;;1.73;0.75;;;;;;;19.69;50.90;97062.38;10428934;28;20290;-29
2023/10/15 13:07:54;;;;;;;1.17;0.75;;;;;;;19.69;51.20;97060.69;10441061;28;20040;-29
2023/10/15 13:12:54;;;;;;;0.87;0.60;;;;;;;19.71;51.14;97058.16;10440599;28;20037;-28
2023/10/15 13:17:55;;;;;;;1.17;0.63;;;;;;;19.69;50.98;97053.06;10443570;28;20272;-28
2023/10/15 13:22:56;;;;;;;0.98;0.60;;;;;;;19.71;51.27;97050.53;10437561;28;20498;-29
2023/10/15 13:27:56;;;;;;;1.10;0.55;;;;;;;19.72;51.29;97052.22;10446702;28;20048;-29
2023/10/15 13:32:56;;;;;;;0.70;0.50;;;;;;;19.71;51.28;97048.84;10436217;28;20037;-28
2023/10/15 13:37:58;;;;;;;0.90;0.40;;;;;;;19.72;51.32;97063.25;10446190;28;20191;-28
2023/10/15 13:42:59;;;;;;;1.00;0.90;;;;;;;19.73;51.27;97061.53;10437020;28;20289;-29
2023/10/15 13:47:59;;;;;;;1.08;0.68;;;;;;;19.72;51.32;97054.75;10445196;28;20039;-29
2023/10/15 13:53:00;;;;;;;0.40;0.40;;;;;;;19.72;51.40;97088.63;10439222;28;20620;-29
2023/10/15 13:58:00;;;;;;;0.80;0.63;;;;;;;19.73;51.24;97094.56;10434923;28;20295;-29
2023/10/15 14:03:01;;;;;;;0.43;0.43;;;;;;;19.70;51.39;97084.41;10435702;28;20049;-28
2023/10/15 14:08:01;;;;;;;0.80;0.57;;;;;;;19.70;51.33;97090.34;10433540;28;20039;-29
2023/10/15 14:13:02;;;;;;;1.25;0.88;;;;;;;19.69;51.28;97088.63;10427934;28;20060;-29
2023/10/15 14:18:05;;;;;;;0.50;0.40;;;;;;;19.69;51.33;97097.94;10433904;28;20079;-28
2023/10/15 14:23:05;;;;;;;0.88;0.63;;;;;;;19.67;51.31;97095.41;10441700;28;20033;-29
2023/10/15 14:28:06;;;;;;;1.60;0.75;;;;;;;19.68;51.23;97086.09;10441612;28;20041;-29
2023/10/15 14:33:07;;;;;;;1.15;0.68;;;;;;;19.69;51.39;97098.78;10440027;28;20044;-28
2023/10/15 14:38:08;;;;;;;0.73;0.60;;;;;;;19.69;51.32;97095.41;10432883;28;20048;-30
2023/10/15 14:43:08;;;;;;;0.60;0.50;;;;;;;19.71;51.40;97101.34;10436781;28;20025;-30
2023/10/15 14:48:10;;;;;;;0.87;0.50;;;;;;;19.69;51.37;97100.50;10431043;28;20132;-29
2023/10/15 14:53:11;;;;;;;0.73;0.60;;;;;;;19.69;51.17;97095.41;10434733;28;20556;-28
2023/10/15 14:58:11;;;;;;;1.30;0.55;;;;;;;19.68;51.36;97107.25;10444902;28;20049;-29
2023/10/15 15:03:12;;;;;;;0.73;0.50;;;;;;;19.68;51.47;97108.97;10433160;28;20610;-29
2023/10/15 15:08:13;;;;;;;0.60;0.50;;;;;;;19.68;51.47;97109.78;10436287;28;20041;-29
2023/10/15 15:13:13;;;;;;;1.50;0.55;;;;;;;19.67;51.47;97113.19;10434360;28;20033;-28
2023/10/15 15:18:13;;;;;;;0.67;0.57;;;;;;;19.67;51.51;97115.72;10435129;28;20038;-29
2023/10/15 15:23:14;;;;;;;0.50;0.50;;;;;;;19.67;51.51;97120.81;10437070;28;20041;-28
2023/10/15 15:28:14;;;;;;;0.60;0.43;;;;;;;19.67;51.41;97125.06;10433865;28;20044;-28
2023/10/15 15:33:14;;;;;;;0.43;0.30;;;;;;;19.67;51.46;97130.13;10442550;28;20045;-28
2023/10/15 15:38:15;;;;;;;0.87;0.63;;;;;;;19.67;51.39;97125.06;10438651;28;20029;-29
2023/10/15 15:43:16;;;;;;;0.57;0.50;;;;;;;19.66;51.50;97125.91;10436227;28;20090;-29
2023/10/15 15:48:16;;;;;;;0.77;0.60;;;;;;;19.67;51.57;97119.97;10444537;28;20518;-29
2023/10/15 15:53:16;;;;;;;0.70;0.50;;;;;;;19.66;51.54;97123.34;10438065;28;20044;-29
2023/10/15 15:58:19;;;;;;;0.70;0.57;;;;;;;19.66;51.37;97123.34;10440025;28;20414;-28
2023/10/15 16:03:20;;;;;;;0.68;0.30;;;;;;;19.65;51.31;97121.63;10444329;28;20056;-29
2023/10/15 16:08:21;;;;;;;0.65;0.40;;;;;;;19.63;51.70;97123.34;10441432;28;20041;-27
2023/10/15 16:13:21;;;;;;;1.07;0.70;;;;;;;19.65;51.55;97132.66;10438167;28;20052;-28
2023/10/15 16:18:22;;;;;;;0.40;0.40;;;;;;;19.65;51.39;97141.97;10436313;28;20036;-30
2023/10/15 16:23:23;;;;;;;0.45;0.30;;;;;;;19.65;51.48;97147.91;10440396;28;20041;-29
2023/10/15 16:28:24;;;;;;;1.52;0.50;;;;;;;19.66;51.57;97158.91;10445114;28;20523;-29
2023/10/15 16:33:24;;;;;;;1.33;0.52;;;;;;;19.65;51.55;97172.44;10438503;28;20036;-28
2023/10/15 16:38:27;;;;;;;0.63;0.60;;;;;;;19.66;51.55;97174.16;10439165;28;20041;-28
2023/10/15 16:43:29;;;;;;;0.77;0.52;;;;;;;19.64;51.35;97178.38;10439262;28;20033;-28
2023/10/15 16:48:29;;;;;;;0.55;0.55;;;;;;;19.64;51.75;97186.00;10441095;28;20036;-29
2023/10/15 16:53:30;;;;;;;0.63;0.40;;;;;;;19.65;51.62;97190.22;10444237;28;20384;-29
2023/10/15 16:58:33;;;;;;;1.50;0.43;;;;;;;19.64;51.54;97189.41;10448368;28;20037;-29
2023/10/15 17:03:33;;;;;;;0.50;0.50;;;;;;;19.65;51.58;97192.75;10440235;28;20061;-28
2023/10/15 17:08:34;;;;;;;0.60;0.50;;;;;;;19.64;51.48;97208.84;10440423;28;20601;-29
2023/10/15 17:13:36;;;;;;;0.82;0.50;;;;;;;19.64;51.54;97216.47;10443615;28;20021;-28
2023/10/15 17:18:36;;;;;;;0.80;0.50;;;;;;;19.64;51.59;97222.41;10446192;28;20029;-29
2023/10/15 17:23:36;;;;;;;0.57;0.50;;;;;;;19.63;51.44;97227.47;10447622;28;20033;-29
2023/10/15 17:28:36;;;;;;;0.53;0.40;;;;;;;19.64;51.48;97231.72;10437218;28;20041;-29
2023/10/15 17:33:37;;;;;;;0.57;0.50;;;;;;;19.63;51.48;97230.88;10444895;28;20415;-29
2023/10/15 17:38:37;;;;;;;0.60;0.43;;;;;;;19.65;51.48;97235.94;10445955;28;20451;-28
2023/10/15 17:43:38;;;;;;;0.87;0.40;;;;;;;19.65;52.24;97234.28;10448671;28;20043;-28
2023/10/15 17:48:38;;;;;;;0.50;0.50;;;;;;;19.55;51.81;97231.69;10441370;28;20034;-29
2023/10/15 17:53:39;;;;;;;1.98;1.00;;;;;;;19.60;52.52;97245.25;10435383;28;20299;-28
2023/10/15 17:58:39;;;;;;;0.90;0.70;;;;;;;19.63;52.38;97240.19;10443658;28;20032;-29
2023/10/15 18:03:40;;;;;;;1.27;0.60;;;;;;;19.67;53.43;97247.00;10436956;28;20037;-29
2023/10/15 18:08:41;;;;;;;3.00;0.70;;;;;;;19.65;51.78;97243.56;10435632;28;20044;-29
2023/10/15 18:13:42;;;;;;;1.55;0.70;;;;;;;19.65;52.17;97243.56;10446262;28;20042;-30
2023/10/15 18:18:43;;;;;;;5.88;1.23;;;;;;;19.66;52.92;97250.38;10434823;28;20021;-29
2023/10/15 18:23:43;;;;;;;5.10;1.00;;;;;;;19.65;52.01;97252.06;10440034;28;20035;-30
2023/10/15 18:28:43;;;;;;;0.90;0.40;;;;;;;19.58;51.64;97257.94;10432836;28;20055;-30
2023/10/15 18:33:44;;;;;;;2.43;0.60;;;;;;;19.57;51.38;97252.84;10435056;28;20299;-29
2023/10/15 18:38:44;;;;;;;2.87;0.80;;;;;;;19.53;51.17;97258.78;10439989;28;20032;-29
2023/10/15 18:43:44;;;;;;;1.10;0.80;;;;;;;19.51;51.03;97248.59;10439024;28;20655;-29
2023/10/15 18:48:45;;;;;;;2.77;0.87;;;;;;;19.50;50.98;97243.53;10424956;28;20287;-30
2023/10/15 18:53:45;;;;;;;2.28;0.95;;;;;;;19.52;50.65;97242.66;10408205;28;20033;-29
2023/10/15 18:58:46;;;;;;;1.13;1.03;;;;;;;19.50;50.68;97241.81;10429191;28;20040;-29
2023/10/15 19:03:47;;;;;;;1.80;1.50;;;;;;;19.54;50.48;97245.22;10430014;28;20037;-29
2023/10/15 19:08:48;;;;;;;2.30;1.52;;;;;;;19.47;50.22;97243.50;10430174;28;20033;-30
2023/10/15 19:13:50;;;;;;;1.45;1.02;;;;;;;19.49;50.28;97255.38;10438709;28;20114;-30
2023/10/15 19:18:50;;;;;;;1.95;1.25;;;;;;;19.48;50.12;97251.13;10438718;28;20029;-30
2023/10/15 19:23:51;;;;;;;1.58;1.23;;;;;;;19.47;50.61;97258.75;10432447;28;20052;-30
2023/10/15 19:28:52;;;;;;;3.60;1.20;;;;;;;19.50;49.62;97251.16;10437833;28;20038;-29
2023/10/15 19:33:52;;;;;;;2.35;1.38;;;;;;;19.49;49.59;97262.16;10440174;28;20451;-29
2023/10/15 19:38:53;;;;;;;1.90;1.30;;;;;;;19.48;49.64;97273.13;10439052;28;20029;-29
2023/10/15 19:43:54;;;;;;;1.37;1.23;;;;;;;19.47;49.63;97274.84;10438335;28;20669;-30
2023/10/15 19:48:54;;;;;;;1.00;0.90;;;;;;;19.47;49.27;97273.97;10435106;28;20760;-29
2023/10/15 19:53:54;;;;;;;1.83;1.23;;;;;;;19.46;49.37;97277.34;10439745;28;20033;-30
2023/10/15 19:58:55;;;;;;;2.90;1.37;;;;;;;19.46;49.37;97282.44;10439631;28;20032;-30
2023/10/15 20:03:55;;;;;;;2.30;1.20;;;;;;;19.46;49.33;97274.81;10438523;28;20037;-30
2023/10/15 20:08:56;;;;;;;2.33;1.20;;;;;;;19.43;49.06;97272.28;10445280;28;20372;-30
2023/10/15 20:13:56;;;;;;;1.95;1.30;;;;;;;19.46;48.91;97283.31;10430527;28;20037;-30
2023/10/15 20:18:56;;;;;;;3.33;0.90;;;;;;;19.43;48.98;97284.97;10440772;28;20148;-29
2023/10/15 20:23:57;;;;;;;1.93;0.97;;;;;;;19.46;48.95;97287.50;10443086;28;20029;-30
2023/10/15 20:28:57;;;;;;;1.83;0.90;;;;;;;19.46;48.79;97290.91;10446029;28;20300;-29
2023/10/15 20:34:00;;;;;;;1.83;0.97;;;;;;;19.46;48.73;97282.44;10434979;28;20040;-30
2023/10/15 20:39:05;;;;;;;1.33;1.05;;;;;;;19.45;48.90;97290.91;10445800;28;20056;-29
2023/10/15 20:44:06;;;;;;;1.93;1.00;;;;;;;19.45;48.51;97280.75;10449158;28;20064;-29
2023/10/15 20:49:06;;;;;;;1.03;0.80;;;;;;;19.44;48.51;97279.03;10442808;28;20508;-29
2023/10/15 20:54:08;;;;;;;1.42;0.88;;;;;;;19.44;48.49;97279.88;10445372;28;20028;-30
2023/10/15 20:59:08;;;;;;;2.67;0.93;;;;;;;19.43;48.37;97278.19;10446786;28;20624;-30
2023/10/15 21:04:09;;;;;;;1.30;0.97;;;;;;;19.41;48.54;97273.97;10442649;28;20093;-29
2023/10/15 21:09:10;;;;;;;1.50;1.00;;;;;;;19.42;48.34;97271.41;10444120;28;20044;-30
2023/10/15 21:14:11;;;;;;;1.80;0.80;;;;;;;19.41;48.38;97268.88;10444018;28;20363;-31
2023/10/15 21:19:13;;;;;;;1.33;0.70;;;;;;;19.41;48.20;97259.56;10438640;28;20129;-31
2023/10/15 21:24:14;;;;;;;1.15;0.60;;;;;;;19.41;48.34;97268.88;10430140;28;20295;-30
2023/10/15 21:29:17;;;;;;;1.30;0.77;;;;;;;19.38;48.46;97269.72;10437790;28;20037;-30
2023/10/15 21:34:18;;;;;;;1.17;0.70;;;;;;;19.40;47.90;97262.09;10434261;28;20557;-29
2023/10/15 21:39:22;;;;;;;1.80;0.67;;;;;;;19.41;48.11;97246.03;10443956;28;20036;-30
2023/10/15 21:44:23;;;;;;;1.42;0.70;;;;;;;19.40;48.29;97241.78;10451203;28;20044;-30
2023/10/15 21:49:23;;;;;;;1.42;0.60;;;;;;;19.40;47.85;97246.84;10442313;28;20036;-29
2023/10/15 21:54:26;;;;;;;1.48;0.70;;;;;;;19.38;47.99;97238.38;10447445;28;20056;-29
2023/10/15 21:59:26;;;;;;;2.33;0.75;;;;;;;19.38;47.80;97234.16;10450612;28;20040;-29
2023/10/15 22:04:27;;;;;;;0.67;0.40;;;;;;;19.38;48.07;97233.31;10442151;28;20514;-29
2023/10/15 22:09:28;;;;;;;1.87;0.77;;;;;;;19.37;47.81;97226.53;10434172;28;20410;-29
2023/10/15 22:14:30;;;;;;;1.10;0.60;;;;;;;19.32;47.67;97223.09;10432674;28;20041;-30
2023/10/15 22:19:32;;;;;;;0.82;0.65;;;;;;;19.35;47.74;97218.91;10428243;28;20040;-30
2023/10/15 22:24:35;;;;;;;1.55;0.88;;;;;;;19.36;47.58;97207.06;10446298;28;20407;-30
2023/10/15 22:29:36;;;;;;;1.08;0.80;;;;;;;19.33;47.80;97204.53;10423954;28;20030;-29
2023/10/15 22:34:37;;;;;;;1.42;0.70;;;;;;;19.33;47.45;97205.34;10430139;28;20510;-30
2023/10/15 22:39:38;;;;;;;1.48;1.02;;;;;;;19.32;47.36;97198.59;10425978;28;20060;-29
2023/10/15 22:44:44;;;;;;;1.90;0.50;;;;;;;19.33;47.32;97190.13;10432323;28;20042;-29
2023/10/15 22:49:44;;;;;;;0.83;0.60;;;;;;;19.33;47.36;97194.38;10422127;28;20033;-29
2023/10/15 22:54:45;;;;;;;1.65;0.68;;;;;;;19.31;47.33;97186.72;10431158;28;20491;-30
2023/10/15 22:59:46;;;;;;;1.10;0.50;;;;;;;19.31;47.54;97191.81;10434682;28;20029;-29
2023/10/15 23:04:47;;;;;;;1.00;0.60;;;;;;;19.32;47.20;97179.94;10426573;28;20483;-30
2023/10/15 23:09:47;;;;;;;1.38;0.70;;;;;;;19.30;46.97;97179.97;10437768;28;20041;-30
2023/10/15 23:14:48;;;;;;;1.07;0.60;;;;;;;19.29;47.25;97177.41;10435789;28;20041;-30
2023/10/15 23:19:49;;;;;;;0.75;0.50;;;;;;;19.29;46.94;97169.78;10429084;28;20032;-29
2023/10/15 23:24:49;;;;;;;1.83;0.65;;;;;;;19.31;47.07;97165.56;10432829;28;20033;-30
2023/10/15 23:29:51;;;;;;;0.80;0.57;;;;;;;19.29;47.00;97159.63;10438780;28;20037;-31
2023/10/15 23:34:52;;;;;;;1.40;0.60;;;;;;;19.28;47.05;97145.25;10445240;28;20041;-30
2023/10/15 23:39:52;;;;;;;1.30;0.53;;;;;;;19.28;46.90;97145.25;10442151;28;20396;-29
2023/10/15 23:44:53;;;;;;;0.60;0.50;;;;;;;19.25;46.66;97130.03;10442924;28;20067;-29